sensor_id;sensor_type;location;lat;lon;timestamp;pressure;altitude;pressure_sealevel;temperature;humidity
1736;BME280;865;53.672;10.250;2023-08-06T00:00:27;100346.66;;;15.75;100.00
1736;BME280;865;53.672;10.250;2023-08-06T00:02:54;100336.94;;;15.77;100.00
1736;BME280;865;53.672;10.250;2023-08-06T00:05:21;100334.31;;;15.77;100.00
1736;BME280;865;53.672;10.250;2023-08-06T00:07:48;100331.88;;;15.72;100.00
1736;BME280;865;53.672;10.250;2023-08-06T00:10:15;100327.69;;;15.68;100.00
1736;BME280;865;53.672;10.250;2023-08-06T00:12:43;100327.56;;;15.71;100.00
1736;BME280;865;53.672;10.250;2023-08-06T00:15:10;100319.81;;;15.68;100.00
1736;BME280;865;53.672;10.250;2023-08-06T00:17:37;100323.44;;;15.64;100.00
1736;BME280;865;53.672;10.250;2023-08-06T00:20:04;100324.38;;;15.63;100.00
1736;BME280;865;53.672;10.250;2023-08-06T00:22:33;100320.91;;;15.62;100.00
1736;BME280;865;53.672;10.250;2023-08-06T00:25:00;100315.81;;;15.59;100.00
1736;BME280;865;53.672;10.250;2023-08-06T00:27:26;100311.38;;;15.60;100.00
1736;BME280;865;53.672;10.250;2023-08-06T00:29:53;100301.03;;;15.38;100.00
1736;BME280;865;53.672;10.250;2023-08-06T00:32:21;100293.06;;;15.39;100.00
1736;BME280;865;53.672;10.250;2023-08-06T00:34:48;100292.78;;;15.45;100.00
1736;BME280;865;53.672;10.250;2023-08-06T00:37:19;100279.78;;;15.42;100.00
1736;BME280;865;53.672;10.250;2023-08-06T00:39:45;100273.69;;;15.42;100.00
1736;BME280;865;53.672;10.250;2023-08-06T00:42:12;100254.34;;;15.62;100.00
1736;BME280;865;53.672;10.250;2023-08-06T00:44:39;100249.00;;;15.63;100.00
1736;BME280;865;53.672;10.250;2023-08-06T00:47:07;100241.19;;;15.62;100.00
1736;BME280;865;53.672;10.250;2023-08-06T00:49:36;100237.53;;;15.64;100.00
1736;BME280;865;53.672;10.250;2023-08-06T00:52:06;100227.22;;;15.42;100.00
1736;BME280;865;53.672;10.250;2023-08-06T00:54:34;100213.53;;;15.36;100.00
1736;BME280;865;53.672;10.250;2023-08-06T00:57:01;100200.97;;;15.23;100.00
1736;BME280;865;53.672;10.250;2023-08-06T00:59:29;100186.53;;;15.32;100.00
1736;BME280;865;53.672;10.250;2023-08-06T01:01:56;100174.75;;;15.41;100.00
1736;BME280;865;53.672;10.250;2023-08-06T01:04:23;100182.97;;;15.33;100.00
1736;BME280;865;53.672;10.250;2023-08-06T01:07:25;100172.06;;;15.23;100.00
1736;BME280;865;53.672;10.250;2023-08-06T01:15:41;100126.06;;;14.78;100.00
1736;BME280;865;53.672;10.250;2023-08-06T01:18:10;100127.31;;;14.89;100.00
1736;BME280;865;53.672;10.250;2023-08-06T01:20:37;100115.13;;;14.69;100.00
1736;BME280;865;53.672;10.250;2023-08-06T01:23:03;100087.88;;;14.71;100.00
1736;BME280;865;53.672;10.250;2023-08-06T01:25:33;100080.69;;;14.75;100.00
1736;BME280;865;53.672;10.250;2023-08-06T01:28:16;100077.03;;;14.79;100.00
1736;BME280;865;53.672;10.250;2023-08-06T01:30:49;100068.84;;;14.85;100.00
1736;BME280;865;53.672;10.250;2023-08-06T01:33:19;100067.91;;;14.86;100.00
1736;BME280;865;53.672;10.250;2023-08-06T01:35:49;100075.16;;;14.81;100.00
1736;BME280;865;53.672;10.250;2023-08-06T01:38:16;100067.50;;;14.76;100.00
1736;BME280;865;53.672;10.250;2023-08-06T01:40:42;100060.13;;;14.66;100.00
1736;BME280;865;53.672;10.250;2023-08-06T01:43:08;100058.50;;;14.63;100.00
1736;BME280;865;53.672;10.250;2023-08-06T01:45:35;100054.59;;;14.72;100.00
1736;BME280;865;53.672;10.250;2023-08-06T01:48:01;100033.91;;;14.83;100.00
1736;BME280;865;53.672;10.250;2023-08-06T01:50:28;100037.50;;;14.99;100.00
1736;BME280;865;53.672;10.250;2023-08-06T01:52:54;100038.09;;;14.87;100.00
1736;BME280;865;53.672;10.250;2023-08-06T01:55:21;100031.44;;;14.80;100.00
1736;BME280;865;53.672;10.250;2023-08-06T01:57:47;100028.63;;;14.66;100.00
1736;BME280;865;53.672;10.250;2023-08-06T02:00:14;100019.06;;;14.65;100.00
1736;BME280;865;53.672;10.250;2023-08-06T02:02:40;100006.34;;;14.74;100.00
1736;BME280;865;53.672;10.250;2023-08-06T02:05:09;100005.41;;;14.58;100.00
1736;BME280;865;53.672;10.250;2023-08-06T02:07:36;100011.78;;;14.52;100.00
1736;BME280;865;53.672;10.250;2023-08-06T02:10:02;99995.19;;;14.52;100.00
1736;BME280;865;53.672;10.250;2023-08-06T02:12:29;100000.28;;;14.55;100.00
1736;BME280;865;53.672;10.250;2023-08-06T02:14:55;99989.97;;;14.50;100.00
1736;BME280;865;53.672;10.250;2023-08-06T02:17:21;99988.72;;;14.40;100.00
1736;BME280;865;53.672;10.250;2023-08-06T02:19:48;99974.47;;;14.46;100.00
1736;BME280;865;53.672;10.250;2023-08-06T02:22:14;99980.69;;;14.43;100.00
1736;BME280;865;53.672;10.250;2023-08-06T02:24:41;99974.47;;;14.46;100.00
1736;BME280;865;53.672;10.250;2023-08-06T02:27:07;99975.47;;;14.43;100.00
1736;BME280;865;53.672;10.250;2023-08-06T02:29:34;99971.56;;;14.33;100.00
1736;BME280;865;53.672;10.250;2023-08-06T02:32:01;99974.19;;;14.33;100.00
1736;BME280;865;53.672;10.250;2023-08-06T02:34:28;99954.75;;;14.37;100.00
1736;BME280;865;53.672;10.250;2023-08-06T02:36:55;99962.94;;;14.31;100.00
1736;BME280;865;53.672;10.250;2023-08-06T02:39:21;99964.66;;;14.30;100.00
1736;BME280;865;53.672;10.250;2023-08-06T02:41:48;99954.38;;;14.45;100.00
1736;BME280;865;53.672;10.250;2023-08-06T02:44:15;99953.03;;;14.36;100.00
1736;BME280;865;53.672;10.250;2023-08-06T02:46:41;99942.81;;;14.49;100.00
1736;BME280;865;53.672;10.250;2023-08-06T02:49:08;99946.09;;;14.54;100.00
1736;BME280;865;53.672;10.250;2023-08-06T02:51:34;99941.69;;;14.54;100.00
1736;BME280;865;53.672;10.250;2023-08-06T02:54:01;99947.97;;;14.50;100.00
1736;BME280;865;53.672;10.250;2023-08-06T02:56:27;99943.97;;;14.43;100.00
1736;BME280;865;53.672;10.250;2023-08-06T02:58:54;99948.09;;;14.30;100.00
1736;BME280;865;53.672;10.250;2023-08-06T03:01:20;99946.94;;;14.35;100.00
1736;BME280;865;53.672;10.250;2023-08-06T03:03:46;99948.53;;;14.40;100.00
1736;BME280;865;53.672;10.250;2023-08-06T03:06:13;99945.66;;;14.44;100.00
1736;BME280;865;53.672;10.250;2023-08-06T03:08:39;99939.78;;;14.39;100.00
1736;BME280;865;53.672;10.250;2023-08-06T03:11:06;99939.38;;;14.29;100.00
1736;BME280;865;53.672;10.250;2023-08-06T03:13:32;99946.69;;;14.23;100.00
1736;BME280;865;53.672;10.250;2023-08-06T03:15:59;99931.25;;;14.17;100.00
1736;BME280;865;53.672;10.250;2023-08-06T03:18:26;99932.28;;;14.12;100.00
1736;BME280;865;53.672;10.250;2023-08-06T03:20:53;99922.09;;;14.06;100.00
1736;BME280;865;53.672;10.250;2023-08-06T03:23:20;99914.56;;;14.18;100.00
1736;BME280;865;53.672;10.250;2023-08-06T03:25:46;99908.41;;;14.19;100.00
1736;BME280;865;53.672;10.250;2023-08-06T03:28:13;99908.97;;;14.25;100.00
1736;BME280;865;53.672;10.250;2023-08-06T03:30:39;99916.06;;;14.23;100.00
1736;BME280;865;53.672;10.250;2023-08-06T03:33:06;99917.16;;;14.00;100.00
1736;BME280;865;53.672;10.250;2023-08-06T03:35:32;99904.47;;;13.91;100.00
1736;BME280;865;53.672;10.250;2023-08-06T03:37:59;99902.50;;;13.96;100.00
1736;BME280;865;53.672;10.250;2023-08-06T03:40:25;99901.75;;;14.11;100.00
1736;BME280;865;53.672;10.250;2023-08-06T03:42:52;99907.16;;;14.08;100.00
1736;BME280;865;53.672;10.250;2023-08-06T03:45:18;99903.44;;;14.12;100.00
1736;BME280;865;53.672;10.250;2023-08-06T03:47:45;99911.59;;;14.06;100.00
1736;BME280;865;53.672;10.250;2023-08-06T03:50:11;99914.16;;;14.08;100.00
1736;BME280;865;53.672;10.250;2023-08-06T03:52:38;99906.94;;;14.13;100.00
1736;BME280;865;53.672;10.250;2023-08-06T03:55:04;99903.25;;;14.17;100.00
1736;BME280;865;53.672;10.250;2023-08-06T03:57:31;99914.56;;;14.18;100.00
1736;BME280;865;53.672;10.250;2023-08-06T03:59:57;99917.19;;;14.18;100.00
1736;BME280;865;53.672;10.250;2023-08-06T04:02:24;99914.09;;;14.09;100.00
1736;BME280;865;53.672;10.250;2023-08-06T04:04:50;99907.69;;;14.15;100.00
1736;BME280;865;53.672;10.250;2023-08-06T04:07:19;99895.53;;;14.14;100.00
1736;BME280;865;53.672;10.250;2023-08-06T04:09:54;99904.09;;;14.18;100.00
1736;BME280;865;53.672;10.250;2023-08-06T04:12:21;99895.22;;;14.20;100.00
1736;BME280;865;53.672;10.250;2023-08-06T04:14:49;99901.31;;;14.21;100.00
1736;BME280;865;53.672;10.250;2023-08-06T04:17:16;99902.84;;;14.07;100.00
1736;BME280;865;53.672;10.250;2023-08-06T04:19:42;99903.03;;;14.03;100.00
1736;BME280;865;53.672;10.250;2023-08-06T04:22:08;99901.06;;;14.08;100.00
1736;BME280;865;53.672;10.250;2023-08-06T04:24:35;99896.16;;;14.19;100.00
1736;BME280;865;53.672;10.250;2023-08-06T04:27:02;99896.38;;;14.14;100.00
1736;BME280;865;53.672;10.250;2023-08-06T04:29:28;99897.91;;;14.19;100.00
1736;BME280;865;53.672;10.250;2023-08-06T04:31:54;99896.22;;;14.18;100.00
1736;BME280;865;53.672;10.250;2023-08-06T04:34:21;99893.69;;;14.16;100.00
1736;BME280;865;53.672;10.250;2023-08-06T04:36:48;99905.47;;;14.07;100.00
1736;BME280;865;53.672;10.250;2023-08-06T04:39:14;99890.56;;;14.08;100.00
1736;BME280;865;53.672;10.250;2023-08-06T04:41:41;99880.91;;;14.08;100.00
1736;BME280;865;53.672;10.250;2023-08-06T04:44:07;99882.00;;;14.22;100.00
1736;BME280;865;53.672;10.250;2023-08-06T04:46:34;99881.03;;;14.24;100.00
1736;BME280;865;53.672;10.250;2023-08-06T04:49:00;99878.25;;;14.27;100.00
1736;BME280;865;53.672;10.250;2023-08-06T04:51:27;99879.34;;;14.23;100.00
1736;BME280;865;53.672;10.250;2023-08-06T04:53:54;99876.78;;;14.22;100.00
1736;BME280;865;53.672;10.250;2023-08-06T04:56:20;99872.59;;;14.18;100.00
1736;BME280;865;53.672;10.250;2023-08-06T04:58:47;99868.66;;;14.09;100.00
1736;BME280;865;53.672;10.250;2023-08-06T05:01:13;99868.91;;;14.04;100.00
1736;BME280;865;53.672;10.250;2023-08-06T05:03:40;99860.25;;;14.02;100.00
1736;BME280;865;53.672;10.250;2023-08-06T05:06:06;99854.84;;;14.05;100.00
1736;BME280;865;53.672;10.250;2023-08-06T05:08:33;99854.50;;;14.13;100.00
1736;BME280;865;53.672;10.250;2023-08-06T05:11:00;99852.09;;;14.26;100.00
1736;BME280;865;53.672;10.250;2023-08-06T05:13:26;99855.50;;;14.28;100.00
1736;BME280;865;53.672;10.250;2023-08-06T05:15:55;99855.91;;;14.38;100.00
1736;BME280;865;53.672;10.250;2023-08-06T05:18:22;99866.88;;;14.46;100.00
1736;BME280;865;53.672;10.250;2023-08-06T05:20:49;99868.47;;;14.31;100.00
1736;BME280;865;53.672;10.250;2023-08-06T05:23:16;99868.09;;;14.39;100.00
1736;BME280;865;53.672;10.250;2023-08-06T05:25:43;99866.00;;;14.45;100.00
1736;BME280;865;53.672;10.250;2023-08-06T05:28:09;99866.44;;;14.36;100.00
1736;BME280;865;53.672;10.250;2023-08-06T05:30:39;99865.56;;;14.37;100.00
1736;BME280;865;53.672;10.250;2023-08-06T05:33:06;99859.44;;;14.36;100.00
1736;BME280;865;53.672;10.250;2023-08-06T05:35:32;99857.28;;;14.45;100.00
1736;BME280;865;53.672;10.250;2023-08-06T05:37:59;99850.03;;;14.50;100.00
1736;BME280;865;53.672;10.250;2023-08-06T05:40:25;99843.19;;;14.65;100.00
1736;BME280;865;53.672;10.250;2023-08-06T05:42:54;99842.25;;;14.66;100.00
1736;BME280;865;53.672;10.250;2023-08-06T05:45:20;99842.81;;;14.72;100.00
1736;BME280;865;53.672;10.250;2023-08-06T05:47:50;99842.19;;;14.67;100.00
1736;BME280;865;53.672;10.250;2023-08-06T05:50:16;99843.66;;;14.73;100.00
1736;BME280;865;53.672;10.250;2023-08-06T05:52:43;99842.03;;;14.70;100.00
1736;BME280;865;53.672;10.250;2023-08-06T05:55:10;99841.81;;;14.57;100.00
1736;BME280;865;53.672;10.250;2023-08-06T05:57:37;99835.00;;;14.53;100.00
1736;BME280;865;53.672;10.250;2023-08-06T06:00:03;99833.44;;;14.49;100.00
1736;BME280;865;53.672;10.250;2023-08-06T06:02:32;99831.03;;;14.45;100.00
1736;BME280;865;53.672;10.250;2023-08-06T06:04:59;99825.34;;;14.71;100.00
1736;BME280;865;53.672;10.250;2023-08-06T06:07:25;99827.59;;;14.79;100.00
1736;BME280;865;53.672;10.250;2023-08-06T06:09:51;99828.69;;;14.57;100.00
1736;BME280;865;53.672;10.250;2023-08-06T06:12:18;99828.75;;;14.56;100.00
1736;BME280;865;53.672;10.250;2023-08-06T06:14:44;99828.59;;;14.59;100.00
1736;BME280;865;53.672;10.250;2023-08-06T06:17:11;99826.34;;;14.69;100.00
1736;BME280;865;53.672;10.250;2023-08-06T06:19:38;99824.63;;;14.85;100.00
1736;BME280;865;53.672;10.250;2023-08-06T06:22:04;99832.19;;;14.91;100.00
1736;BME280;865;53.672;10.250;2023-08-06T06:24:31;99839.63;;;14.83;100.00
1736;BME280;865;53.672;10.250;2023-08-06T06:26:57;99838.00;;;14.80;100.00
1736;BME280;865;53.672;10.250;2023-08-06T06:29:23;99837.00;;;14.83;100.00
1736;BME280;865;53.672;10.250;2023-08-06T06:31:50;99833.31;;;14.70;100.00
1736;BME280;865;53.672;10.250;2023-08-06T06:34:17;99828.75;;;14.73;100.00
1736;BME280;865;53.672;10.250;2023-08-06T06:36:44;99822.88;;;14.68;100.00
1736;BME280;865;53.672;10.250;2023-08-06T06:39:10;99820.03;;;14.73;100.00
1736;BME280;865;53.672;10.250;2023-08-06T06:41:37;99818.16;;;14.75;100.00
1736;BME280;865;53.672;10.250;2023-08-06T06:44:03;99827.31;;;14.84;100.00
1736;BME280;865;53.672;10.250;2023-08-06T06:46:30;99826.00;;;14.92;100.00
1736;BME280;865;53.672;10.250;2023-08-06T06:48:57;99823.16;;;14.97;100.00
1736;BME280;865;53.672;10.250;2023-08-06T06:51:23;99825.69;;;14.98;100.00
1736;BME280;865;53.672;10.250;2023-08-06T06:53:49;99824.00;;;14.97;100.00
1736;BME280;865;53.672;10.250;2023-08-06T06:56:16;99817.81;;;14.98;100.00
1736;BME280;865;53.672;10.250;2023-08-06T06:58:42;99825.63;;;15.00;100.00
1736;BME280;865;53.672;10.250;2023-08-06T07:01:09;99812.38;;;15.01;100.00
1736;BME280;865;53.672;10.250;2023-08-06T07:03:38;99815.50;;;14.92;100.00
1736;BME280;865;53.672;10.250;2023-08-06T07:06:05;99814.25;;;14.99;100.00
1736;BME280;865;53.672;10.250;2023-08-06T07:08:32;99809.41;;;14.92;100.00
1736;BME280;865;53.672;10.250;2023-08-06T07:11:01;99813.56;;;14.96;100.00
1736;BME280;865;53.672;10.250;2023-08-06T07:13:28;99809.59;;;15.04;100.00
1736;BME280;865;53.672;10.250;2023-08-06T07:15:54;99809.06;;;14.98;100.00
1736;BME280;865;53.672;10.250;2023-08-06T07:18:22;99802.22;;;14.95;100.00
1736;BME280;865;53.672;10.250;2023-08-06T07:20:52;99807.25;;;15.16;100.00
1736;BME280;865;53.672;10.250;2023-08-06T07:23:20;99807.00;;;15.20;100.00
1736;BME280;865;53.672;10.250;2023-08-06T07:25:47;99806.75;;;15.25;100.00
1736;BME280;865;53.672;10.250;2023-08-06T07:28:15;99807.34;;;15.30;100.00
1736;BME280;865;53.672;10.250;2023-08-06T07:30:43;99808.63;;;15.39;100.00
1736;BME280;865;53.672;10.250;2023-08-06T07:33:10;99801.25;;;15.45;100.00
1736;BME280;865;53.672;10.250;2023-08-06T07:35:38;99809.91;;;15.47;100.00
1736;BME280;865;53.672;10.250;2023-08-06T07:38:04;99805.16;;;15.38;100.00
1736;BME280;865;53.672;10.250;2023-08-06T07:40:31;99809.59;;;15.38;100.00
1736;BME280;865;53.672;10.250;2023-08-06T07:42:58;99814.56;;;15.42;100.00
1736;BME280;865;53.672;10.250;2023-08-06T07:45:24;99813.97;;;15.37;100.00
1736;BME280;865;53.672;10.250;2023-08-06T07:47:52;99804.41;;;15.36;100.00
1736;BME280;865;53.672;10.250;2023-08-06T07:50:19;99813.28;;;15.18;100.00
1736;BME280;865;53.672;10.250;2023-08-06T07:52:47;99811.50;;;15.34;100.00
1736;BME280;865;53.672;10.250;2023-08-06T07:55:13;99815.91;;;15.49;100.00
1736;BME280;865;53.672;10.250;2023-08-06T07:57:40;99808.72;;;15.53;100.00
1736;BME280;865;53.672;10.250;2023-08-06T08:00:07;99805.84;;;15.58;100.00
1736;BME280;865;53.672;10.250;2023-08-06T08:02:33;99817.28;;;15.57;100.00
1736;BME280;865;53.672;10.250;2023-08-06T08:05:00;99813.38;;;15.64;100.00
1736;BME280;865;53.672;10.250;2023-08-06T08:07:26;99823.16;;;15.62;100.00
1736;BME280;865;53.672;10.250;2023-08-06T08:09:55;99816.78;;;15.66;100.00
1736;BME280;865;53.672;10.250;2023-08-06T08:12:21;99814.78;;;15.71;100.00
1736;BME280;865;53.672;10.250;2023-08-06T08:14:48;99817.06;;;15.77;100.00
1736;BME280;865;53.672;10.250;2023-08-06T08:17:14;99826.31;;;15.68;100.00
1736;BME280;865;53.672;10.250;2023-08-06T08:19:41;99822.75;;;15.69;100.00
1736;BME280;865;53.672;10.250;2023-08-06T08:22:07;99825.63;;;15.81;100.00
1736;BME280;865;53.672;10.250;2023-08-06T08:24:34;99828.75;;;15.87;100.00
1736;BME280;865;53.672;10.250;2023-08-06T08:27:01;99839.66;;;15.64;100.00
1736;BME280;865;53.672;10.250;2023-08-06T08:29:27;99836.72;;;15.70;100.00
1736;BME280;865;53.672;10.250;2023-08-06T08:31:54;99832.00;;;15.77;100.00
1736;BME280;865;53.672;10.250;2023-08-06T08:34:21;99835.81;;;15.71;100.00
1736;BME280;865;53.672;10.250;2023-08-06T08:36:47;99837.22;;;15.61;100.00
1736;BME280;865;53.672;10.250;2023-08-06T08:39:14;99831.41;;;15.71;100.00
1736;BME280;865;53.672;10.250;2023-08-06T08:41:41;99826.81;;;15.75;100.00
1736;BME280;865;53.672;10.250;2023-08-06T08:44:09;99815.69;;;15.70;100.00
1736;BME280;865;53.672;10.250;2023-08-06T08:46:38;99816.06;;;15.80;100.00
1736;BME280;865;53.672;10.250;2023-08-06T08:49:06;99817.41;;;15.71;100.00
1736;BME280;865;53.672;10.250;2023-08-06T08:51:34;99824.75;;;15.64;100.00
1736;BME280;865;53.672;10.250;2023-08-06T08:54:04;99829.72;;;15.70;100.00
1736;BME280;865;53.672;10.250;2023-08-06T08:56:34;99835.38;;;15.79;100.00
1736;BME280;865;53.672;10.250;2023-08-06T08:59:00;99825.47;;;15.68;100.00
1736;BME280;865;53.672;10.250;2023-08-06T09:01:27;99831.56;;;15.68;100.00
1736;BME280;865;53.672;10.250;2023-08-06T09:03:55;99829.19;;;15.80;100.00
1736;BME280;865;53.672;10.250;2023-08-06T09:06:25;99833.41;;;15.82;100.00
1736;BME280;865;53.672;10.250;2023-08-06T09:09:12;99830.97;;;15.79;100.00
1736;BME280;865;53.672;10.250;2023-08-06T09:11:43;99832.25;;;15.72;100.00
1736;BME280;865;53.672;10.250;2023-08-06T09:14:11;99829.53;;;15.74;100.00
1736;BME280;865;53.672;10.250;2023-08-06T09:16:38;99823.41;;;15.73;100.00
1736;BME280;865;53.672;10.250;2023-08-06T09:21:39;99828.50;;;15.76;100.00
1736;BME280;865;53.672;10.250;2023-08-06T09:24:10;99835.81;;;15.87;100.00
1736;BME280;865;53.672;10.250;2023-08-06T09:26:42;99838.19;;;15.91;100.00
1736;BME280;865;53.672;10.250;2023-08-06T09:29:11;99839.69;;;15.95;100.00
1736;BME280;865;53.672;10.250;2023-08-06T09:31:49;99824.44;;;15.86;100.00
1736;BME280;865;53.672;10.250;2023-08-06T09:34:23;99828.94;;;15.84;100.00
1736;BME280;865;53.672;10.250;2023-08-06T09:36:52;99821.53;;;15.91;100.00
1736;BME280;865;53.672;10.250;2023-08-06T09:39:26;99822.72;;;16.01;100.00
1736;BME280;865;53.672;10.250;2023-08-06T09:41:56;99822.47;;;15.90;100.00
1736;BME280;865;53.672;10.250;2023-08-06T09:44:24;99814.34;;;15.79;100.00
1736;BME280;865;53.672;10.250;2023-08-06T09:46:53;99825.31;;;15.71;100.00
1736;BME280;865;53.672;10.250;2023-08-06T09:49:26;99822.09;;;15.64;100.00
1736;BME280;865;53.672;10.250;2023-08-06T09:51:54;99812.16;;;15.71;100.00
1736;BME280;865;53.672;10.250;2023-08-06T09:54:23;99801.69;;;15.85;100.00
1736;BME280;865;53.672;10.250;2023-08-06T09:56:54;99797.47;;;15.83;100.00
1736;BME280;865;53.672;10.250;2023-08-06T09:59:22;99793.75;;;15.71;100.00
1736;BME280;865;53.672;10.250;2023-08-06T10:01:49;99791.34;;;15.82;100.00
1736;BME280;865;53.672;10.250;2023-08-06T10:04:16;99779.13;;;15.81;100.00
1736;BME280;865;53.672;10.250;2023-08-06T10:06:50;99781.94;;;15.78;100.00
1736;BME280;865;53.672;10.250;2023-08-06T10:09:18;99773.53;;;15.87;100.00
1736;BME280;865;53.672;10.250;2023-08-06T10:11:51;99765.28;;;15.93;100.00
1736;BME280;865;53.672;10.250;2023-08-06T10:14:24;99772.94;;;15.82;100.00
1736;BME280;865;53.672;10.250;2023-08-06T10:16:52;99778.00;;;15.85;100.00
1736;BME280;865;53.672;10.250;2023-08-06T10:19:19;99778.16;;;15.68;100.00
1736;BME280;865;53.672;10.250;2023-08-06T10:24:56;99761.06;;;15.75;100.00
1736;BME280;865;53.672;10.250;2023-08-06T10:30:29;99753.84;;;15.94;100.00
1736;BME280;865;53.672;10.250;2023-08-06T10:32:57;99755.75;;;15.77;100.00
1736;BME280;865;53.672;10.250;2023-08-06T10:35:36;99749.97;;;15.70;100.00
1736;BME280;865;53.672;10.250;2023-08-06T10:38:04;99739.09;;;15.92;100.00
1736;BME280;865;53.672;10.250;2023-08-06T10:40:32;99752.78;;;15.97;100.00
1736;BME280;865;53.672;10.250;2023-08-06T10:43:00;99751.94;;;15.97;100.00
1736;BME280;865;53.672;10.250;2023-08-06T10:45:27;99752.13;;;15.93;100.00
1736;BME280;865;53.672;10.250;2023-08-06T10:47:55;99745.41;;;16.04;100.00
1736;BME280;865;53.672;10.250;2023-08-06T10:50:25;99747.69;;;16.10;100.00
1736;BME280;865;53.672;10.250;2023-08-06T10:52:53;99742.06;;;16.16;100.00
1736;BME280;865;53.672;10.250;2023-08-06T10:55:28;99757.81;;;16.02;100.00
1736;BME280;865;53.672;10.250;2023-08-06T10:57:55;99741.59;;;16.09;100.00
1736;BME280;865;53.672;10.250;2023-08-06T11:00:22;99765.22;;;15.79;100.00
1736;BME280;865;53.672;10.250;2023-08-06T11:02:53;99768.63;;;15.65;100.00
1736;BME280;865;53.672;10.250;2023-08-06T11:05:19;99759.03;;;15.80;100.00
1736;BME280;865;53.672;10.250;2023-08-06T11:07:46;99754.03;;;15.91;100.00
1736;BME280;865;53.672;10.250;2023-08-06T11:10:14;99760.47;;;15.86;100.00
1736;BME280;865;53.672;10.250;2023-08-06T11:12:40;99767.41;;;15.87;100.00
1736;BME280;865;53.672;10.250;2023-08-06T11:15:07;99759.66;;;16.00;100.00
1736;BME280;865;53.672;10.250;2023-08-06T11:17:34;99760.50;;;16.00;100.00
1736;BME280;865;53.672;10.250;2023-08-06T11:20:03;99764.13;;;16.13;100.00
1736;BME280;865;53.672;10.250;2023-08-06T11:22:31;99770.38;;;15.97;100.00
1736;BME280;865;53.672;10.250;2023-08-06T11:24:57;99764.91;;;16.15;100.00
1736;BME280;865;53.672;10.250;2023-08-06T11:27:26;99758.38;;;16.07;100.00
1736;BME280;865;53.672;10.250;2023-08-06T11:29:54;99738.22;;;16.22;100.00
1736;BME280;865;53.672;10.250;2023-08-06T11:32:21;99731.28;;;16.35;100.00
1736;BME280;865;53.672;10.250;2023-08-06T11:34:47;99727.44;;;16.55;100.00
1736;BME280;865;53.672;10.250;2023-08-06T11:37:14;99727.16;;;16.59;100.00
1736;BME280;865;53.672;10.250;2023-08-06T11:39:46;99750.38;;;16.53;100.00
1736;BME280;865;53.672;10.250;2023-08-06T11:42:13;99760.88;;;16.24;100.00
1736;BME280;865;53.672;10.250;2023-08-06T11:44:40;99760.97;;;16.23;100.00
1736;BME280;865;53.672;10.250;2023-08-06T11:47:15;99746.66;;;16.27;100.00
1736;BME280;865;53.672;10.250;2023-08-06T11:49:47;99747.34;;;16.45;100.00
1736;BME280;865;53.672;10.250;2023-08-06T11:52:24;99742.28;;;16.56;100.00
1736;BME280;865;53.672;10.250;2023-08-06T11:57:29;99739.34;;;16.32;100.00
1736;BME280;865;53.672;10.250;2023-08-06T12:00:06;99735.69;;;16.34;100.00
1736;BME280;865;53.672;10.250;2023-08-06T12:02:34;99736.47;;;16.36;100.00
1736;BME280;865;53.672;10.250;2023-08-06T12:05:13;99734.31;;;16.57;100.00
1736;BME280;865;53.672;10.250;2023-08-06T12:07:43;99730.72;;;16.58;100.00
1736;BME280;865;53.672;10.250;2023-08-06T12:10:10;99727.06;;;16.61;100.00
1736;BME280;865;53.672;10.250;2023-08-06T12:12:37;99738.63;;;16.58;100.00
1736;BME280;865;53.672;10.250;2023-08-06T12:15:05;99729.38;;;16.81;100.00
1736;BME280;865;53.672;10.250;2023-08-06T12:17:32;99740.75;;;16.82;100.00
1736;BME280;865;53.672;10.250;2023-08-06T12:19:59;99743.09;;;16.87;100.00
1736;BME280;865;53.672;10.250;2023-08-06T12:22:26;99737.47;;;16.93;100.00
1736;BME280;865;53.672;10.250;2023-08-06T12:24:53;99745.44;;;16.77;100.00
1736;BME280;865;53.672;10.250;2023-08-06T12:27:19;99734.81;;;16.93;100.00
1736;BME280;865;53.672;10.250;2023-08-06T12:29:49;99745.53;;;16.75;100.00
1736;BME280;865;53.672;10.250;2023-08-06T12:32:15;99752.88;;;16.84;100.00
1736;BME280;865;53.672;10.250;2023-08-06T12:34:42;99742.63;;;16.94;100.00
1736;BME280;865;53.672;10.250;2023-08-06T12:37:18;99729.03;;;17.15;100.00
1736;BME280;865;53.672;10.250;2023-08-06T12:39:45;99737.59;;;17.18;100.00
1736;BME280;865;53.672;10.250;2023-08-06T12:42:11;99733.50;;;17.41;100.00
1736;BME280;865;53.672;10.250;2023-08-06T12:44:38;99742.38;;;17.40;100.00
1736;BME280;865;53.672;10.250;2023-08-06T12:47:05;99749.97;;;17.45;100.00
1736;BME280;865;53.672;10.250;2023-08-06T12:49:31;99755.59;;;17.53;100.00
1736;BME280;865;53.672;10.250;2023-08-06T12:51:59;99766.22;;;17.51;100.00
1736;BME280;865;53.672;10.250;2023-08-06T12:54:31;99762.19;;;17.46;100.00
1736;BME280;865;53.672;10.250;2023-08-06T12:57:03;99755.03;;;17.48;100.00
1736;BME280;865;53.672;10.250;2023-08-06T12:59:30;99760.53;;;17.30;100.00
1736;BME280;865;53.672;10.250;2023-08-06T13:01:57;99765.63;;;17.34;100.00
1736;BME280;865;53.672;10.250;2023-08-06T13:04:24;99766.81;;;17.42;100.00
1736;BME280;865;53.672;10.250;2023-08-06T13:06:51;99777.94;;;17.33;100.00
1736;BME280;865;53.672;10.250;2023-08-06T13:09:17;99796.16;;;17.23;100.00
1736;BME280;865;53.672;10.250;2023-08-06T13:11:44;99803.47;;;17.33;100.00
1736;BME280;865;53.672;10.250;2023-08-06T13:14:13;99806.56;;;17.39;100.00
1736;BME280;865;53.672;10.250;2023-08-06T13:16:41;99805.78;;;17.51;100.00
1736;BME280;865;53.672;10.250;2023-08-06T13:19:09;99794.19;;;17.54;100.00
1736;BME280;865;53.672;10.250;2023-08-06T13:21:59;99790.84;;;17.52;100.00
1736;BME280;865;53.672;10.250;2023-08-06T13:24:27;99807.97;;;17.45;100.00
1736;BME280;865;53.672;10.250;2023-08-06T13:26:54;99809.84;;;17.43;100.00
1736;BME280;865;53.672;10.250;2023-08-06T13:29:21;99813.97;;;17.61;100.00